createdAt,value
2023-04-21T00:01:08.528Z,30.40
2023-04-21T00:03:38.459Z,27.67
2023-04-21T00:06:07.345Z,29.17
2023-04-21T00:08:38.141Z,29.92
2023-04-21T00:11:07.726Z,29.77
2023-04-21T00:13:36.175Z,29.45
2023-04-21T00:16:04.405Z,30.25
2023-04-21T00:18:32.527Z,31.17
2023-04-21T00:21:00.614Z,30.15
2023-04-21T00:23:28.629Z,31.05
2023-04-21T00:25:56.801Z,30.58
2023-04-21T00:28:26.263Z,30.42
2023-04-21T00:30:55.297Z,31.05
2023-04-21T00:33:23.331Z,32.63
2023-04-21T00:35:51.356Z,32.42
2023-04-21T00:38:19.356Z,32.08
2023-04-21T00:40:47.324Z,32.28
2023-04-21T00:43:15.322Z,31.30
2023-04-21T00:45:46.997Z,31.17
2023-04-21T00:48:15.332Z,31.38
2023-04-21T00:50:43.672Z,30.42
2023-04-21T00:53:11.929Z,31.48
2023-04-21T00:55:39.934Z,31.10
2023-04-21T00:58:08.060Z,31.20
2023-04-21T01:00:36.482Z,30.63
2023-04-21T01:03:06.442Z,31.38
2023-04-21T01:05:35.089Z,29.15
2023-04-21T01:08:03.824Z,30.02
2023-04-21T01:10:31.971Z,32.00
2023-04-21T01:12:59.951Z,31.73
2023-04-21T01:15:30.956Z,32.40
2023-04-21T01:17:59.268Z,31.77
2023-04-21T01:20:29.779Z,30.80
2023-04-21T01:22:59.295Z,33.10
2023-04-21T01:25:28.621Z,32.40
2023-04-21T01:27:56.654Z,30.23
2023-04-21T01:30:24.782Z,30.73
2023-04-21T01:32:52.894Z,33.75
2023-04-21T01:35:21.027Z,34.45
2023-04-21T01:37:49.022Z,31.45
2023-04-21T01:40:18.463Z,32.05
2023-04-21T01:42:47.203Z,30.38
2023-04-21T01:45:15.322Z,31.45
2023-04-21T01:47:43.374Z,30.63
2023-04-21T01:50:11.736Z,31.70
2023-04-21T01:52:39.714Z,31.73
2023-04-21T01:55:08.493Z,31.98
2023-04-21T01:57:37.849Z,30.77
2023-04-21T02:00:07.046Z,31.30
2023-04-21T02:02:35.150Z,32.90
2023-04-21T02:05:03.219Z,33.95
2023-04-21T02:07:31.195Z,32.50
2023-04-21T02:09:59.448Z,31.92
2023-04-21T02:12:28.833Z,31.35
2023-04-21T02:14:58.306Z,33.72
2023-04-21T02:17:26.370Z,31.92
2023-04-21T02:19:54.430Z,33.17
2023-04-21T02:22:23.106Z,32.33
2023-04-21T02:24:51.416Z,32.25
2023-04-21T02:27:19.395Z,33.22
2023-04-21T02:29:47.386Z,33.30
2023-04-21T02:32:25.463Z,34.45
2023-04-21T02:34:54.122Z,33.70
2023-04-21T02:37:22.227Z,34.28
2023-04-21T02:39:50.247Z,33.78
2023-04-21T02:42:18.192Z,33.60
2023-04-21T02:44:46.182Z,35.40
2023-04-21T02:47:17.662Z,36.30
2023-04-21T02:49:45.794Z,34.58
2023-04-21T02:52:13.803Z,36.03
2023-04-21T02:54:41.845Z,34.88
2023-04-21T02:57:09.834Z,35.42
2023-04-21T02:59:37.832Z,35.55
2023-04-21T03:02:05.837Z,36.33
2023-04-21T03:04:35.421Z,36.13
2023-04-21T03:07:03.490Z,36.28
2023-04-21T03:09:31.502Z,36.85
2023-04-21T03:11:59.458Z,36.25
2023-04-21T03:14:27.450Z,36.45
2023-04-21T03:16:55.523Z,35.05
2023-04-21T03:19:23.715Z,35.75
2023-04-21T03:21:53.189Z,35.28
2023-04-21T03:24:21.481Z,34.83
2023-04-21T03:26:49.596Z,34.47
2023-04-21T03:29:17.886Z,36.53
2023-04-21T03:31:46.122Z,38.08
2023-04-21T03:34:14.147Z,36.08
2023-04-21T03:36:42.343Z,37.63
2023-04-21T03:39:19.725Z,38.08
2023-04-21T03:41:48.397Z,38.20
2023-04-21T03:44:16.456Z,36.85
2023-04-21T03:46:44.454Z,36.85
2023-04-21T03:49:12.525Z,38.65
2023-04-21T03:51:40.516Z,37.22
2023-04-21T03:54:09.343Z,39.03
2023-04-21T03:56:38.711Z,38.03
2023-04-21T03:59:06.794Z,39.13
2023-04-21T04:01:35.388Z,38.40
2023-04-21T04:04:03.878Z,38.72
2023-04-21T04:06:32.589Z,37.63
2023-04-21T04:09:02.636Z,39.15
2023-04-21T04:11:30.738Z,35.83
2023-04-21T04:14:00.219Z,39.80
2023-04-21T04:16:29.351Z,38.80
2023-04-21T04:18:57.665Z,38.40
2023-04-21T04:21:25.670Z,39.45
2023-04-21T04:23:53.647Z,39.88
2023-04-21T04:26:22.581Z,38.30
2023-04-21T04:28:50.699Z,37.40
2023-04-21T04:31:20.271Z,38.00
2023-04-21T04:33:48.318Z,36.63
2023-04-21T04:36:16.324Z,37.47
2023-04-21T04:38:45.965Z,37.38
2023-04-21T04:41:13.944Z,36.50
2023-04-21T04:43:41.954Z,37.30
2023-04-21T04:46:11.312Z,35.97
2023-04-21T04:48:40.769Z,35.70
2023-04-21T04:51:08.786Z,36.97
2023-04-21T04:53:36.776Z,35.95
2023-04-21T04:56:04.793Z,35.15
2023-04-21T04:58:32.874Z,34.78
2023-04-21T05:01:01.019Z,36.50
2023-04-21T05:03:29.163Z,35.15
2023-04-21T05:05:58.681Z,35.78
2023-04-21T05:08:26.745Z,37.85
2023-04-21T05:10:54.758Z,38.22
2023-04-21T05:13:22.905Z,37.88
2023-04-21T05:15:50.898Z,35.88
2023-04-21T05:18:18.905Z,34.45
2023-04-21T05:20:46.890Z,34.67
2023-04-21T05:23:16.257Z,35.70
2023-04-21T05:25:44.340Z,34.20
2023-04-21T05:28:12.347Z,35.70
2023-04-21T05:30:40.600Z,35.60
2023-04-21T05:33:11.918Z,35.90
2023-04-21T05:35:40.380Z,36.85
2023-04-21T05:38:08.389Z,38.25
2023-04-21T05:40:37.763Z,38.83
2023-04-21T05:43:05.749Z,39.80
2023-04-21T05:45:33.844Z,40.70
2023-04-21T05:48:02.545Z,39.30
2023-04-21T05:50:34.007Z,39.10
2023-04-21T05:53:02.120Z,39.92
2023-04-21T05:55:30.100Z,38.20
2023-04-21T05:57:59.478Z,38.83
2023-04-21T06:00:27.563Z,36.55
2023-04-21T06:02:55.746Z,41.13
2023-04-21T06:05:24.212Z,41.85
2023-04-21T06:07:52.226Z,40.65
2023-04-21T06:10:21.157Z,40.38
2023-04-21T06:12:49.136Z,40.72
2023-04-21T06:15:18.628Z,40.55
2023-04-21T06:17:46.653Z,41.92
2023-04-21T06:20:14.728Z,42.17
2023-04-21T06:22:42.745Z,40.90
2023-04-21T06:25:11.094Z,42.75
2023-04-21T06:27:39.068Z,41.25
2023-04-21T06:30:08.500Z,41.75
2023-04-21T06:32:37.888Z,41.35
2023-04-21T06:35:06.333Z,39.42
2023-04-21T06:37:34.555Z,40.33
2023-04-21T06:40:02.544Z,39.97
2023-04-21T06:42:30.618Z,39.72
2023-04-21T06:44:58.646Z,38.95
2023-04-21T06:47:27.424Z,37.53
2023-04-21T06:49:57.000Z,38.25
2023-04-21T06:52:24.965Z,38.05
2023-04-21T06:54:52.976Z,38.33
2023-04-21T06:57:20.971Z,39.38
2023-04-21T06:59:49.045Z,38.13
2023-04-21T07:02:17.140Z,37.55
2023-04-21T07:04:45.270Z,38.53
2023-04-21T07:07:14.700Z,38.42
2023-04-21T07:09:42.830Z,37.28
2023-04-21T07:12:10.829Z,37.10
2023-04-21T07:14:38.896Z,36.65
2023-04-21T07:17:06.964Z,37.25
2023-04-21T07:19:35.015Z,39.53
2023-04-21T07:22:02.991Z,36.03
2023-04-21T07:24:34.477Z,35.72
2023-04-21T07:27:03.542Z,36.45
2023-04-21T07:29:31.711Z,35.00
2023-04-21T07:31:59.994Z,36.88
2023-04-21T07:34:28.028Z,37.05
2023-04-21T07:36:57.434Z,35.38
2023-04-21T07:39:25.483Z,35.00
2023-04-21T07:41:55.850Z,35.38
2023-04-21T07:44:23.906Z,34.97
2023-04-21T07:46:51.888Z,33.72
2023-04-21T07:49:20.098Z,35.85
2023-04-21T07:51:48.233Z,32.65
2023-04-21T07:54:16.312Z,32.92
2023-04-21T07:56:44.439Z,31.90
2023-04-21T07:59:14.535Z,30.88
2023-04-21T08:01:42.546Z,30.38
2023-04-21T08:04:10.795Z,29.10
2023-04-21T08:06:39.427Z,27.98
2023-04-21T08:09:07.598Z,28.58
2023-04-21T08:11:35.647Z,26.83
2023-04-21T08:14:03.769Z,26.77
2023-04-21T08:16:33.174Z,27.88
2023-04-21T08:19:01.251Z,26.95
2023-04-21T08:21:31.315Z,28.60
2023-04-21T08:23:59.594Z,23.98
2023-04-21T08:26:30.021Z,22.77
2023-04-21T08:28:58.240Z,23.52
2023-04-21T08:31:26.500Z,25.98
2023-04-21T08:34:02.012Z,25.27
2023-04-21T08:36:31.946Z,34.80
2023-04-21T08:39:00.232Z,23.38
2023-04-21T08:41:28.717Z,22.83
2023-04-21T08:43:56.909Z,23.55
2023-04-21T08:46:25.251Z,22.20
2023-04-21T08:48:55.099Z,22.48
2023-04-21T08:51:26.028Z,20.23
2023-04-21T08:53:56.087Z,20.52
2023-04-21T08:56:26.186Z,21.70
2023-04-21T08:58:54.377Z,21.25
2023-04-21T09:01:22.456Z,22.25
2023-04-21T09:03:50.786Z,21.55
2023-04-21T09:06:19.144Z,21.13
2023-04-21T09:08:56.528Z,20.90
2023-04-21T09:11:25.711Z,20.52
2023-04-21T09:13:58.405Z,22.13
2023-04-21T09:16:26.506Z,20.60
2023-04-21T09:18:54.575Z,20.42
2023-04-21T09:21:23.282Z,19.85
2023-04-21T09:23:52.660Z,20.67
2023-04-21T09:26:23.723Z,22.27
2023-04-21T09:28:53.352Z,20.90
2023-04-21T09:31:24.744Z,22.30
2023-04-21T09:33:58.798Z,18.50
2023-04-21T09:36:30.692Z,19.58
2023-04-21T09:39:20.651Z,19.65
2023-04-21T09:41:49.920Z,18.65
2023-04-21T09:44:18.817Z,18.48
2023-04-21T09:46:50.228Z,18.65
2023-04-21T09:49:19.038Z,17.40
2023-04-21T09:56:54.902Z,17.05
2023-04-21T09:59:28.603Z,17.23
2023-04-21T10:01:57.205Z,16.50
2023-04-21T10:04:26.981Z,16.42
2023-04-21T10:06:56.314Z,16.45
2023-04-21T10:09:25.393Z,17.50
2023-04-21T10:11:55.618Z,16.00
2023-04-21T10:14:23.765Z,13.18
2023-04-21T10:16:57.889Z,14.27
2023-04-21T10:19:26.968Z,13.38
2023-04-21T10:21:57.200Z,13.52
2023-04-21T10:24:29.800Z,13.73
2023-04-21T10:27:01.684Z,12.77
2023-04-21T10:29:40.178Z,12.23
2023-04-21T10:32:32.991Z,13.48
2023-04-21T10:35:01.003Z,13.00
2023-04-21T10:37:32.639Z,13.35
2023-04-21T10:40:00.757Z,12.27
2023-04-21T10:42:32.021Z,12.95
2023-04-21T10:45:10.353Z,12.70
2023-04-21T10:47:44.398Z,11.40
2023-04-21T10:50:18.287Z,12.48
2023-04-21T10:52:48.213Z,11.52
2023-04-21T10:55:17.116Z,11.85
2023-04-21T10:57:46.835Z,11.38
2023-04-21T11:00:20.436Z,11.52
2023-04-21T11:02:56.832Z,11.20
2023-04-21T11:05:34.630Z,11.70
2023-04-21T11:08:11.354Z,10.82
2023-04-21T11:10:49.195Z,11.30
2023-04-21T11:13:18.757Z,10.52
2023-04-21T11:16:04.300Z,10.73
2023-04-21T11:18:39.783Z,10.27
2023-04-21T11:21:21.453Z,11.93
2023-04-21T11:23:50.775Z,10.82
2023-04-21T11:26:19.328Z,10.63
2023-04-21T11:28:50.883Z,10.98
2023-04-21T11:31:18.984Z,10.65
2023-04-21T11:33:47.113Z,11.35
2023-04-21T11:36:15.244Z,11.15
2023-04-21T11:38:43.301Z,10.23
2023-04-21T11:41:12.594Z,9.90
2023-04-21T11:43:40.599Z,11.00
2023-04-21T11:46:19.232Z,11.00
2023-04-21T11:48:47.410Z,10.75
2023-04-21T11:51:21.483Z,11.48
2023-04-21T11:53:50.518Z,10.23
2023-04-21T11:56:21.968Z,10.80
2023-04-21T11:58:52.839Z,9.60
2023-04-21T12:01:22.632Z,9.75
2023-04-21T12:03:54.889Z,9.70
2023-04-21T12:06:27.132Z,10.55
2023-04-21T12:09:00.300Z,8.73
2023-04-21T12:11:29.738Z,9.63
2023-04-21T12:13:59.094Z,8.48
2023-04-21T12:16:29.822Z,7.80
2023-04-21T12:18:58.342Z,8.80
2023-04-21T12:21:29.305Z,7.60
2023-04-21T12:23:57.733Z,8.05
2023-04-21T12:26:25.785Z,8.27
2023-04-21T12:28:54.178Z,8.13
2023-04-21T12:31:22.251Z,7.38
2023-04-21T12:33:51.707Z,7.90
2023-04-21T12:36:19.776Z,7.82
2023-04-21T12:38:47.804Z,7.53
2023-04-21T12:41:15.851Z,8.00
2023-04-21T12:43:43.912Z,7.70
2023-04-21T12:46:11.968Z,6.90
2023-04-21T12:48:40.083Z,7.32
2023-04-21T12:51:09.455Z,6.70
2023-04-21T12:53:37.596Z,7.38
2023-04-21T12:56:07.041Z,7.95
2023-04-21T12:58:35.110Z,7.35
2023-04-21T13:01:03.158Z,7.22
2023-04-21T13:03:31.470Z,7.82
2023-04-21T13:05:59.683Z,6.68
2023-04-21T13:08:29.053Z,7.05
2023-04-21T13:10:57.031Z,6.43
2023-04-21T13:13:25.007Z,7.32
2023-04-21T13:15:52.983Z,7.82
2023-04-21T13:18:21.106Z,7.90
2023-04-21T13:20:49.306Z,7.70
2023-04-21T13:23:17.408Z,7.63
2023-04-21T13:25:46.790Z,7.00
2023-04-21T13:28:15.077Z,7.10
2023-04-21T13:30:43.166Z,8.07
2023-04-21T13:33:11.451Z,7.55
2023-04-21T13:35:40.045Z,7.28
2023-04-21T13:38:08.140Z,7.07
2023-04-21T13:40:36.673Z,7.47
2023-04-21T13:43:06.114Z,6.45
2023-04-21T13:45:34.300Z,7.28
2023-04-21T13:48:02.332Z,7.35
2023-04-21T13:50:30.408Z,7.93
2023-04-21T13:52:58.485Z,7.90
2023-04-21T13:55:26.653Z,7.60
2023-04-21T13:57:54.686Z,7.40
2023-04-21T14:00:24.446Z,8.15
2023-04-21T14:02:53.064Z,7.55
2023-04-21T14:05:21.471Z,7.55
2023-04-21T14:07:49.599Z,8.13
2023-04-21T14:10:17.671Z,8.02
2023-04-21T14:12:46.081Z,7.47
2023-04-21T14:15:14.543Z,8.18
2023-04-21T14:17:44.008Z,8.43
2023-04-21T14:20:12.886Z,7.88
2023-04-21T14:22:40.951Z,8.10
2023-04-21T14:25:09.681Z,7.20
2023-04-21T14:27:37.782Z,8.02
2023-04-21T14:30:06.934Z,7.88
2023-04-21T14:32:35.215Z,8.20
2023-04-21T14:35:05.645Z,8.13
2023-04-21T14:37:34.078Z,7.88
2023-04-21T14:40:03.884Z,9.30
2023-04-21T14:42:31.935Z,8.63
2023-04-21T14:44:59.928Z,8.65
2023-04-21T14:47:28.360Z,8.88
2023-04-21T14:49:56.375Z,7.90
2023-04-21T14:52:27.008Z,8.70
2023-04-21T14:54:55.108Z,8.23
2023-04-21T14:57:23.132Z,9.63
2023-04-21T14:59:51.909Z,7.93
2023-04-21T15:02:21.343Z,6.72
2023-04-21T15:04:50.044Z,7.20
2023-04-21T15:07:23.117Z,7.75
2023-04-21T15:09:55.414Z,7.55
2023-04-21T15:12:23.623Z,7.63
2023-04-21T15:14:51.804Z,7.93
2023-04-21T15:17:19.873Z,7.70
2023-04-21T15:19:47.857Z,6.80
2023-04-21T15:22:16.174Z,7.03
2023-04-21T15:24:44.195Z,6.70
2023-04-21T15:27:13.608Z,6.38
2023-04-21T15:29:41.881Z,5.93
2023-04-21T15:32:09.924Z,6.15
2023-04-21T15:34:37.906Z,5.25
2023-04-21T15:37:05.977Z,6.47
2023-04-21T15:39:34.265Z,6.80
2023-04-21T15:42:04.346Z,5.97
2023-04-21T15:44:34.937Z,5.03
2023-04-21T15:47:03.206Z,6.72
2023-04-21T15:49:31.328Z,6.50
2023-04-21T15:51:59.811Z,6.55
2023-04-21T15:54:27.922Z,6.43
2023-04-21T15:56:56.068Z,7.65
2023-04-21T15:59:25.923Z,6.50
2023-04-21T16:01:56.874Z,8.23
2023-04-21T16:04:25.384Z,7.32
2023-04-21T16:06:53.607Z,7.15
2023-04-21T16:09:22.245Z,6.93
2023-04-21T16:11:51.482Z,12.93
2023-04-21T16:14:19.707Z,6.70
2023-04-21T16:16:48.043Z,7.20
2023-04-21T16:19:17.715Z,6.82
2023-04-21T16:21:45.728Z,6.70
2023-04-21T16:24:13.877Z,7.53
2023-04-21T16:26:41.998Z,7.07
2023-04-21T16:29:10.056Z,6.05
2023-04-21T16:31:38.170Z,7.15
2023-04-21T16:34:06.256Z,5.95
2023-04-21T16:36:35.680Z,6.63
2023-04-21T16:39:03.767Z,6.00
2023-04-21T16:41:31.729Z,5.75
2023-04-21T16:43:59.752Z,5.63
2023-04-21T16:46:27.890Z,5.88
2023-04-21T16:48:56.018Z,6.25
2023-04-21T16:51:26.131Z,6.97
2023-04-21T16:53:56.626Z,7.47
2023-04-21T16:56:24.713Z,7.25
2023-04-21T16:58:52.772Z,4.97
2023-04-21T17:01:21.629Z,6.68
2023-04-21T17:03:49.741Z,5.45
2023-04-21T17:06:20.935Z,5.50
2023-04-21T17:08:49.383Z,5.45
2023-04-21T17:11:18.713Z,5.22
2023-04-21T17:13:46.694Z,5.15
2023-04-21T17:16:14.916Z,5.00
2023-04-21T17:18:43.024Z,5.15
2023-04-21T17:21:12.500Z,5.68
2023-04-21T17:23:40.914Z,5.75
2023-04-21T17:26:11.621Z,5.07
2023-04-21T17:28:42.479Z,5.65
2023-04-21T17:31:15.761Z,6.20
2023-04-21T17:33:44.620Z,5.07
2023-04-21T17:36:12.968Z,4.95
2023-04-21T17:38:42.730Z,5.40
2023-04-21T17:41:10.902Z,4.80
2023-04-21T17:43:38.912Z,4.93
2023-04-21T17:46:08.643Z,5.40
2023-04-21T17:48:36.756Z,5.72
2023-04-21T17:51:05.070Z,6.43
2023-04-21T17:53:33.086Z,5.82
2023-04-21T17:56:01.257Z,5.90
2023-04-21T17:58:29.466Z,5.28
2023-04-21T18:00:57.518Z,5.78
2023-04-21T18:03:27.885Z,4.43
2023-04-21T18:05:56.642Z,5.75
2023-04-21T18:08:24.712Z,5.30
2023-04-21T18:10:52.706Z,6.13
2023-04-21T18:13:20.832Z,5.45
2023-04-21T18:15:48.944Z,5.68
2023-04-21T18:18:16.961Z,6.85
2023-04-21T18:20:46.324Z,5.50
2023-04-21T18:23:14.401Z,5.63
2023-04-21T18:25:43.553Z,5.13
2023-04-21T18:28:12.991Z,5.95
2023-04-21T18:30:41.711Z,6.15
2023-04-21T18:33:10.157Z,5.28
2023-04-21T18:35:38.240Z,5.68
2023-04-21T18:38:10.529Z,5.95
2023-04-21T18:40:40.583Z,5.90
2023-04-21T18:43:09.732Z,7.10
2023-04-21T18:45:37.978Z,5.47
2023-04-21T18:48:06.588Z,5.85
2023-04-21T18:50:39.692Z,5.05
2023-04-21T18:53:10.043Z,6.18
2023-04-21T18:55:38.417Z,5.82
2023-04-21T18:58:06.462Z,7.65
2023-04-21T19:00:37.305Z,6.10
2023-04-21T19:03:06.354Z,8.25
2023-04-21T19:05:35.968Z,4.47
2023-04-21T19:08:04.015Z,4.80
2023-04-21T19:10:35.473Z,5.10
2023-04-21T19:13:03.601Z,5.50
2023-04-21T19:15:31.618Z,5.05
2023-04-21T19:17:59.673Z,5.55
2023-04-21T19:20:27.679Z,4.93
2023-04-21T19:22:55.729Z,4.63
2023-04-21T19:25:23.714Z,4.82
2023-04-21T19:27:53.093Z,3.78
2023-04-21T19:30:21.739Z,4.40
2023-04-21T19:32:49.779Z,5.25
2023-04-21T19:35:18.337Z,5.10
2023-04-21T19:37:46.637Z,5.00
2023-04-21T19:40:14.664Z,5.38
2023-04-21T19:42:42.666Z,4.68
2023-04-21T19:45:12.454Z,4.60
2023-04-21T19:47:40.609Z,4.82
2023-04-21T19:50:10.392Z,4.85
2023-04-21T19:52:38.452Z,4.22
2023-04-21T19:55:06.892Z,4.03
2023-04-21T19:57:35.509Z,5.53
2023-04-21T20:00:05.710Z,6.57
2023-04-21T20:02:36.839Z,5.53
2023-04-21T20:05:06.360Z,4.68
2023-04-21T20:07:34.529Z,6.40
2023-04-21T20:10:02.822Z,4.60
2023-04-21T20:12:30.894Z,4.53
2023-04-21T20:14:58.883Z,4.85
2023-04-21T20:17:27.616Z,5.40
2023-04-21T20:19:57.032Z,4.90
2023-04-21T20:22:25.954Z,4.63
2023-04-21T20:24:54.021Z,6.03
2023-04-21T20:27:23.563Z,6.60
2023-04-21T20:29:51.576Z,6.50
2023-04-21T20:32:19.580Z,5.88
2023-04-21T20:34:47.637Z,5.70
2023-04-21T20:37:17.203Z,6.85
2023-04-21T20:39:46.853Z,6.40
2023-04-21T20:42:14.867Z,6.32
2023-04-21T20:44:43.416Z,6.55
2023-04-21T20:47:12.080Z,7.45
2023-04-21T20:49:40.897Z,7.43
2023-04-21T20:52:09.308Z,6.72
2023-04-21T20:54:38.791Z,6.63
2023-04-21T20:57:07.467Z,5.65
2023-04-21T20:59:35.964Z,4.68
2023-04-21T21:02:04.347Z,5.07
2023-04-21T21:04:32.724Z,5.18
2023-04-21T21:07:01.195Z,5.43
2023-04-21T21:09:29.253Z,5.00
2023-04-21T21:11:58.610Z,5.22
2023-04-21T21:14:26.872Z,6.25
2023-04-21T21:16:56.370Z,5.93
2023-04-21T21:19:24.504Z,5.68
2023-04-21T21:21:52.486Z,5.93
2023-04-21T21:24:20.515Z,6.25
2023-04-21T21:26:48.576Z,7.40
2023-04-21T21:29:17.921Z,6.85
2023-04-21T21:31:45.970Z,7.32
2023-04-21T21:34:14.005Z,6.70
2023-04-21T21:36:42.097Z,6.38
2023-04-21T21:39:11.259Z,6.53
2023-04-21T21:41:39.759Z,7.28
2023-04-21T21:44:07.781Z,8.10
2023-04-21T21:46:37.285Z,7.15
2023-04-21T21:49:05.337Z,7.63
2023-04-21T21:51:33.371Z,7.15
2023-04-21T21:54:01.340Z,7.53
2023-04-21T21:56:29.359Z,7.60
2023-04-21T21:58:57.382Z,8.77
2023-04-21T22:01:25.600Z,18.70
2023-04-21T22:03:55.174Z,17.65
2023-04-21T22:06:24.472Z,7.97
2023-04-21T22:08:52.708Z,13.55
2023-04-21T22:11:20.902Z,14.82
2023-04-21T22:13:48.946Z,12.70
2023-04-21T22:16:18.516Z,7.53
2023-04-21T22:18:48.501Z,6.35
2023-04-21T22:21:17.906Z,6.88
2023-04-21T22:23:45.942Z,6.57
2023-04-21T22:26:13.946Z,7.10
2023-04-21T22:28:43.556Z,6.80
2023-04-21T22:31:11.638Z,7.40
2023-04-21T22:33:39.690Z,6.40
2023-04-21T22:36:09.884Z,5.97
2023-04-21T22:38:40.235Z,6.93
2023-04-21T22:41:08.237Z,6.88
2023-04-21T22:43:36.299Z,6.57
2023-04-21T22:46:04.280Z,6.55
2023-04-21T22:48:32.832Z,6.30
2023-04-21T22:51:01.742Z,6.47
2023-04-21T22:53:29.841Z,6.30
2023-04-21T22:55:59.193Z,6.50
2023-04-21T22:58:27.236Z,6.63
2023-04-21T23:00:55.289Z,6.32
2023-04-21T23:03:24.259Z,7.07
2023-04-21T23:05:52.668Z,6.20
2023-04-21T23:08:20.688Z,6.22
2023-04-21T23:10:48.803Z,6.72
2023-04-21T23:13:18.211Z,6.00
2023-04-21T23:15:46.184Z,6.22
2023-04-21T23:18:14.192Z,6.78
2023-04-21T23:20:42.179Z,7.20
2023-04-21T23:23:10.449Z,7.40
2023-04-21T23:25:38.486Z,7.85
2023-04-21T23:28:06.549Z,7.70
2023-04-21T23:30:36.109Z,7.88
2023-04-21T23:33:04.472Z,6.05
2023-04-21T23:35:32.629Z,5.72
2023-04-21T23:38:00.638Z,6.00
2023-04-21T23:40:28.686Z,6.82
2023-04-21T23:42:56.688Z,6.57
2023-04-21T23:45:24.769Z,6.25
2023-04-21T23:47:54.626Z,6.32
2023-04-21T23:50:22.670Z,6.47
2023-04-21T23:52:50.832Z,6.75
2023-04-21T23:55:19.022Z,7.32
2023-04-21T23:57:47.122Z,6.78
